Time,TemperatureF,DewpointF,PressureIn,WindDirection,WindDirectionDegrees,WindSpeedMPH,WindSpeedGustMPH,Humidity,HourlyPrecipIn,Conditions,Clouds,dailyrainin,SoftwareType,DateUTC
2013-06-09 00:04:00,65.5,58.0,29.91,South,190,5.0,9.0,78,0.00,,,0.00,weatherlink.com 1.10,2013-06-09 05:04:00,
2013-06-09 00:19:00,65.7,59.0,29.92,SE,145,4.0,10.0,78,0.00,,,0.00,weatherlink.com 1.10,2013-06-09 05:19:00,
2013-06-09 00:34:00,65.8,58.0,29.93,SSE,153,3.0,8.0,77,0.00,,,0.00,weatherlink.com 1.10,2013-06-09 05:34:00,
2013-06-09 00:49:00,66.3,59.0,29.93,SSW,213,4.0,10.0,76,0.00,,,0.00,weatherlink.com 1.10,2013-06-09 05:49:00,
2013-06-09 01:04:00,66.5,59.0,29.94,South,185,7.0,9.0,76,0.00,,,0.00,weatherlink.com 1.10,2013-06-09 06:04:00,
2013-06-09 01:19:00,66.6,58.0,29.93,SSW,192,6.0,10.0,75,0.00,,,0.00,weatherlink.com 1.10,2013-06-09 06:19:00,
2013-06-09 01:34:00,66.4,59.0,29.93,South,182,5.0,9.0,76,0.00,,,0.00,weatherlink.com 1.10,2013-06-09 06:34:00,
2013-06-09 01:49:00,65.9,58.0,29.92,SSE,155,3.0,7.0,76,0.00,,,0.00,weatherlink.com 1.10,2013-06-09 06:49:00,
2013-06-09 02:04:00,65.5,58.0,29.91,SSW,193,6.0,7.0,77,0.00,,,0.00,weatherlink.com 1.10,2013-06-09 07:04:00,
2013-06-09 02:19:00,65.2,58.0,29.91,South,189,1.0,7.0,78,0.00,,,0.00,weatherlink.com 1.10,2013-06-09 07:19:00,
2013-06-09 02:34:00,65.2,58.0,29.91,South,190,1.0,8.0,77,0.00,,,0.00,weatherlink.com 1.10,2013-06-09 07:34:00,
2013-06-09 02:49:00,65.4,58.0,29.91,South,178,3.0,10.0,77,0.00,,,0.00,weatherlink.com 1.10,2013-06-09 07:49:00,
2013-06-09 03:04:00,65.5,58.0,29.91,SW,216,5.0,9.0,76,0.00,,,0.00,weatherlink.com 1.10,2013-06-09 08:04:00,
2013-06-09 03:19:00,65.8,58.0,29.91,SSW,208,4.0,8.0,76,0.00,,,0.00,weatherlink.com 1.10,2013-06-09 08:19:00,
2013-06-09 03:34:00,65.2,58.0,29.92,SW,217,3.0,6.0,77,0.00,,,0.00,weatherlink.com 1.10,2013-06-09 08:34:00,
2013-06-09 03:49:00,64.9,58.0,29.91,SSW,196,2.0,4.0,78,0.00,,,0.00,weatherlink.com 1.10,2013-06-09 08:49:00,
2013-06-09 04:04:00,64.6,58.0,29.91,SSW,193,1.0,3.0,78,0.00,,,0.00,weatherlink.com 1.10,2013-06-09 09:04:00,
2013-06-09 04:19:00,64.5,58.0,29.90,SSE,166,0.0,6.0,78,0.00,,,0.00,weatherlink.com 1.10,2013-06-09 09:19:00,
2013-06-09 04:34:00,63.9,58.0,29.90,SSE,165,1.0,3.0,80,0.00,,,0.00,weatherlink.com 1.10,2013-06-09 09:34:00,
2013-06-09 04:50:00,63.2,58.0,29.90,SSE,165,1.0,4.0,82,0.00,,,0.00,weatherlink.com 1.10,2013-06-09 09:50:00,
2013-06-09 05:05:00,63.0,58.0,29.89,SSE,159,1.0,4.0,83,0.00,,,0.00,weatherlink.com 1.10,2013-06-09 10:05:00,
2013-06-09 05:20:00,62.9,58.0,29.89,South,180,1.0,1.0,83,0.00,,,0.00,weatherlink.com 1.10,2013-06-09 10:20:00,
2013-06-09 05:35:00,62.8,58.0,29.89,South,173,1.0,3.0,83,0.00,,,0.00,weatherlink.com 1.10,2013-06-09 10:35:00,
2013-06-09 05:50:00,62.9,58.0,29.89,SSE,165,1.0,5.0,83,0.00,,,0.00,weatherlink.com 1.10,2013-06-09 10:50:00,
2013-06-09 06:05:00,63.1,58.0,29.89,SSE,160,3.0,5.0,84,0.00,,,0.00,weatherlink.com 1.10,2013-06-09 11:05:00,
2013-06-09 06:20:00,63.3,58.0,29.89,SSW,208,4.0,6.0,83,0.00,,,0.00,weatherlink.com 1.10,2013-06-09 11:20:00,
2013-06-09 06:35:00,63.4,59.0,29.89,South,170,3.0,6.0,84,0.00,,,0.00,weatherlink.com 1.10,2013-06-09 11:35:00,
2013-06-09 06:50:00,63.7,59.0,29.88,SE,124,6.0,6.0,84,0.00,,,0.00,weatherlink.com 1.10,2013-06-09 11:50:00,
2013-06-09 07:05:00,64.0,59.0,29.88,South,178,2.0,7.0,84,0.00,,,0.00,weatherlink.com 1.10,2013-06-09 12:05:00,
2013-06-09 07:20:00,64.4,60.0,29.88,South,181,2.0,7.0,85,0.00,,,0.00,weatherlink.com 1.10,2013-06-09 12:20:00,
2013-06-09 07:35:00,64.9,60.0,29.89,South,190,4.0,7.0,85,0.00,,,0.00,weatherlink.com 1.10,2013-06-09 12:35:00,
2013-06-09 07:50:00,65.5,61.0,29.90,NW,310,7.0,11.0,85,0.00,,,0.00,weatherlink.com 1.10,2013-06-09 12:50:00,
2013-06-09 08:05:00,65.6,60.0,29.90,NW,304,5.0,9.0,83,0.00,,,0.00,weatherlink.com 1.10,2013-06-09 13:05:00,
2013-06-09 08:20:00,65.3,60.0,29.90,NW,304,4.0,9.0,84,0.00,,,0.00,weatherlink.com 1.10,2013-06-09 13:20:00,
2013-06-09 08:35:00,63.8,60.0,29.91,NW,315,10.0,17.0,86,0.00,,,0.00,weatherlink.com 1.10,2013-06-09 13:35:00,
2013-06-09 08:50:00,61.3,59.0,29.91,NNW,336,11.0,17.0,91,0.08,,,0.08,weatherlink.com 1.10,2013-06-09 13:50:00,
2013-06-09 09:05:00,60.0,58.0,29.94,WNW,283,10.0,18.0,94,0.21,,,0.21,weatherlink.com 1.10,2013-06-09 14:05:00,
2013-06-09 09:20:00,59.2,58.0,29.94,NNW,331,12.0,17.0,94,0.31,,,0.31,weatherlink.com 1.10,2013-06-09 14:20:00,
2013-06-09 09:35:00,59.7,58.0,29.92,North,360,3.0,14.0,94,0.32,,,0.32,weatherlink.com 1.10,2013-06-09 14:35:00,
2013-06-09 09:50:00,59.6,58.0,29.92,NNE,29,4.0,7.0,93,0.24,,,0.32,weatherlink.com 1.10,2013-06-09 14:50:00,
2013-06-09 10:05:00,59.6,58.0,29.91,NNE,24,5.0,9.0,93,0.12,,,0.33,weatherlink.com 1.10,2013-06-09 15:05:00,
2013-06-09 10:20:00,59.8,58.0,29.90,NE,36,5.0,8.0,94,0.03,,,0.34,weatherlink.com 1.10,2013-06-09 15:20:00,
2013-06-09 10:35:00,60.4,59.0,29.91,NE,44,3.0,5.0,94,0.02,,,0.00,weatherlink.com 1.10,2013-06-09 15:35:00,
2013-06-09 10:50:00,60.3,58.0,29.92,NE,44,1.0,5.0,93,0.01,,,0.00,weatherlink.com 1.10,2013-06-09 15:50:00,
2013-06-09 11:05:00,60.3,58.0,29.91,East,84,3.0,7.0,93,0.04,,,0.03,weatherlink.com 1.10,2013-06-09 16:05:00,
2013-06-09 11:20:00,60.4,59.0,29.90,East,87,7.0,8.0,95,0.07,,,0.07,weatherlink.com 1.10,2013-06-09 16:20:00,
2013-06-09 11:35:00,60.6,59.0,29.90,ESE,119,3.0,9.0,95,0.07,,,0.07,weatherlink.com 1.10,2013-06-09 16:35:00,
2013-06-09 11:50:00,61.2,60.0,29.90,ESE,112,3.0,7.0,95,0.07,,,0.07,weatherlink.com 1.10,2013-06-09 16:50:00,
2013-06-09 12:05:00,61.4,60.0,29.90,SE,146,5.0,8.0,95,0.04,,,0.07,weatherlink.com 1.10,2013-06-09 17:05:00,
2013-06-09 12:20:00,61.4,60.0,29.89,SSE,148,4.0,9.0,95,0.00,,,0.07,weatherlink.com 1.10,2013-06-09 17:20:00,
2013-06-09 12:35:00,63.0,62.0,29.89,SE,140,5.0,10.0,95,0.00,,,0.07,weatherlink.com 1.10,2013-06-09 17:35:00,
2013-06-09 12:50:00,64.8,63.0,29.87,SE,135,2.0,10.0,93,0.00,,,0.07,weatherlink.com 1.10,2013-06-09 17:50:00,
2013-06-09 13:05:00,66.1,64.0,29.90,SE,136,0.0,6.0,92,0.00,,,0.07,weatherlink.com 1.10,2013-06-09 18:05:00,
2013-06-09 13:20:00,66.4,64.0,29.90,SW,235,5.0,7.0,90,0.00,,,0.07,weatherlink.com 1.10,2013-06-09 18:20:00,
2013-06-09 13:35:00,67.9,65.0,29.89,WSW,240,6.0,7.0,91,0.00,,,0.07,weatherlink.com 1.10,2013-06-09 18:35:00,
2013-06-09 13:50:00,69.3,66.0,29.89,SW,225,3.0,8.0,88,0.00,,,0.07,weatherlink.com 1.10,2013-06-09 18:50:00,
2013-06-09 14:06:00,70.7,66.0,29.88,SW,223,9.0,10.0,84,0.00,,,0.07,weatherlink.com 1.10,2013-06-09 19:06:00,
2013-06-09 14:21:00,72.3,67.0,29.87,SW,218,6.0,14.0,83,0.00,,,0.07,weatherlink.com 1.10,2013-06-09 19:21:00,
2013-06-09 14:36:00,72.6,66.0,29.87,WSW,244,4.0,7.0,80,0.00,,,0.07,weatherlink.com 1.10,2013-06-09 19:36:00,
2013-06-09 14:51:00,72.9,65.0,29.86,WNW,287,12.0,14.0,77,0.00,,,0.07,weatherlink.com 1.10,2013-06-09 19:51:00,
2013-06-09 15:06:00,74.3,65.0,29.86,WNW,286,4.0,15.0,73,0.00,,,0.07,weatherlink.com 1.10,2013-06-09 20:06:00,
2013-06-09 15:21:00,74.9,65.0,29.86,WSW,255,10.0,11.0,70,0.00,,,0.07,weatherlink.com 1.10,2013-06-09 20:21:00,
2013-06-09 15:36:00,75.7,64.0,29.86,West,271,15.0,16.0,67,0.00,,,0.07,weatherlink.com 1.10,2013-06-09 20:36:00,
2013-06-09 15:51:00,75.6,62.0,29.86,WNW,282,9.0,17.0,63,0.00,,,0.07,weatherlink.com 1.10,2013-06-09 20:51:00,
2013-06-09 16:21:00,74.4,63.0,29.85,West,275,7.0,12.0,67,0.00,,,0.07,weatherlink.com 1.10,2013-06-09 21:21:00,
2013-06-09 16:52:00,76.9,62.0,29.84,West,281,7.0,13.0,60,0.00,,,0.07,weatherlink.com 1.10,2013-06-09 21:52:00,
2013-06-09 17:06:00,76.7,60.0,29.84,West,275,10.0,13.0,57,0.00,,,0.07,weatherlink.com 1.10,2013-06-09 22:06:00,
2013-06-09 17:36:00,76.8,60.0,29.85,NW,305,12.0,16.0,57,0.00,,,0.07,weatherlink.com 1.10,2013-06-09 22:36:00,
2013-06-09 18:06:00,76.9,60.0,29.84,NW,306,12.0,16.0,56,0.00,,,0.07,weatherlink.com 1.10,2013-06-09 23:06:00,
2013-06-09 18:21:00,76.5,62.0,29.84,West,260,5.0,14.0,61,0.00,,,0.07,weatherlink.com 1.10,2013-06-09 23:21:00,
2013-06-09 18:36:00,76.4,60.0,29.84,West,277,11.0,13.0,58,0.00,,,0.07,weatherlink.com 1.10,2013-06-09 23:36:00,
2013-06-09 19:21:00,73.0,60.0,29.86,NNW,334,9.0,10.0,65,0.00,,,0.07,weatherlink.com 1.10,2013-06-10 00:21:00,
2013-06-09 19:36:00,63.6,57.0,29.86,NNW,334,4.0,17.0,80,0.10,,,0.17,weatherlink.com 1.10,2013-06-10 00:36:00,
2013-06-09 19:51:00,64.4,57.0,29.86,NNW,338,0.0,4.0,76,0.10,,,0.17,weatherlink.com 1.10,2013-06-10 00:51:00,
2013-06-09 20:06:00,64.2,58.0,29.85,NNW,338,1.0,3.0,81,0.10,,,0.17,weatherlink.com 1.10,2013-06-10 01:06:00,
2013-06-09 20:21:00,62.8,59.0,29.85,NNW,338,2.0,4.0,87,0.10,,,0.17,weatherlink.com 1.10,2013-06-10 01:21:00,
2013-06-09 20:36:00,61.6,58.0,29.85,NNW,338,3.0,4.0,89,0.00,,,0.17,weatherlink.com 1.10,2013-06-10 01:36:00,
2013-06-09 20:51:00,61.1,59.0,29.85,NNW,336,2.0,5.0,91,0.00,,,0.17,weatherlink.com 1.10,2013-06-10 01:51:00,
2013-06-09 21:06:00,60.0,58.0,29.85,SSW,196,1.0,5.0,93,0.00,,,0.17,weatherlink.com 1.10,2013-06-10 02:06:00,
2013-06-09 21:36:00,58.7,57.0,29.86,South,179,5.0,6.0,94,0.00,,,0.17,weatherlink.com 1.10,2013-06-10 02:36:00,
2013-06-09 21:51:00,58.4,57.0,29.86,South,178,2.0,5.0,95,0.00,,,0.17,weatherlink.com 1.10,2013-06-10 02:51:00,
2013-06-09 22:06:00,58.3,57.0,29.87,South,185,3.0,4.0,94,0.00,,,0.17,weatherlink.com 1.10,2013-06-10 03:06:00,
2013-06-09 22:21:00,58.2,57.0,29.87,SSW,203,3.0,6.0,94,0.00,,,0.17,weatherlink.com 1.10,2013-06-10 03:21:00,
2013-06-09 22:36:00,58.2,57.0,29.87,South,180,1.0,5.0,94,0.00,,,0.17,weatherlink.com 1.10,2013-06-10 03:36:00,
2013-06-09 23:06:00,58.9,57.0,29.88,SSW,194,4.0,6.0,92,0.00,,,0.17,weatherlink.com 1.10,2013-06-10 04:06:00,
2013-06-09 23:21:00,59.9,58.0,29.88,SSW,200,4.0,5.0,93,0.00,,,0.17,weatherlink.com 1.10,2013-06-10 04:21:00,
2013-06-09 23:36:00,59.7,57.0,29.88,SSW,193,4.0,5.0,92,0.00,,,0.17,weatherlink.com 1.10,2013-06-10 04:36:00,
2013-06-09 23:52:00,60.0,58.0,29.88,SSW,197,3.0,5.0,92,0.00,,,0.17,weatherlink.com 1.10,2013-06-10 04:52:00,